sensor_id;sensor_type;location;lat;lon;timestamp;P1;durP1;ratioP1;P2;durP2;ratioP2
2480;SDS011;57396;48.742;9.128;2022-12-18T00:00:43;60.33;;;28.53;;
2480;SDS011;57396;48.742;9.128;2022-12-18T00:03:08;60.70;;;28.13;;
2480;SDS011;57396;48.742;9.128;2022-12-18T00:05:34;66.37;;;29.50;;
2480;SDS011;57396;48.742;9.128;2022-12-18T00:08:00;59.37;;;26.97;;
2480;SDS011;57396;48.742;9.128;2022-12-18T00:10:26;61.60;;;29.17;;
2480;SDS011;57396;48.742;9.128;2022-12-18T00:12:52;57.93;;;27.93;;
2480;SDS011;57396;48.742;9.128;2022-12-18T00:15:18;64.27;;;30.50;;
2480;SDS011;57396;48.742;9.128;2022-12-18T00:17:43;61.33;;;29.30;;
2480;SDS011;57396;48.742;9.128;2022-12-18T00:20:09;68.63;;;29.27;;
2480;SDS011;57396;48.742;9.128;2022-12-18T00:22:34;67.33;;;31.53;;
2480;SDS011;57396;48.742;9.128;2022-12-18T00:25:00;67.20;;;30.17;;
2480;SDS011;57396;48.742;9.128;2022-12-18T00:27:25;65.27;;;30.93;;
2480;SDS011;57396;48.742;9.128;2022-12-18T00:29:51;71.80;;;32.50;;
2480;SDS011;57396;48.742;9.128;2022-12-18T00:32:16;71.33;;;32.33;;
2480;SDS011;57396;48.742;9.128;2022-12-18T00:34:41;72.50;;;32.00;;
2480;SDS011;57396;48.742;9.128;2022-12-18T00:37:07;60.40;;;29.70;;
2480;SDS011;57396;48.742;9.128;2022-12-18T00:39:32;72.10;;;31.20;;
2480;SDS011;57396;48.742;9.128;2022-12-18T00:41:58;64.80;;;31.50;;
2480;SDS011;57396;48.742;9.128;2022-12-18T00:44:42;69.80;;;30.93;;
2480;SDS011;57396;48.742;9.128;2022-12-18T00:47:07;67.93;;;31.10;;
2480;SDS011;57396;48.742;9.128;2022-12-18T00:49:33;64.80;;;29.40;;
2480;SDS011;57396;48.742;9.128;2022-12-18T00:51:58;61.03;;;28.97;;
2480;SDS011;57396;48.742;9.128;2022-12-18T00:54:23;66.47;;;29.70;;
2480;SDS011;57396;48.742;9.128;2022-12-18T00:56:49;60.87;;;29.73;;
2480;SDS011;57396;48.742;9.128;2022-12-18T00:59:15;63.13;;;28.83;;
2480;SDS011;57396;48.742;9.128;2022-12-18T01:01:41;64.43;;;29.97;;
2480;SDS011;57396;48.742;9.128;2022-12-18T01:04:06;61.57;;;31.00;;
2480;SDS011;57396;48.742;9.128;2022-12-18T01:06:32;62.80;;;28.77;;
2480;SDS011;57396;48.742;9.128;2022-12-18T01:08:57;59.67;;;29.20;;
2480;SDS011;57396;48.742;9.128;2022-12-18T01:11:23;59.00;;;28.73;;
2480;SDS011;57396;48.742;9.128;2022-12-18T01:13:48;62.90;;;31.10;;
2480;SDS011;57396;48.742;9.128;2022-12-18T01:16:14;68.57;;;30.70;;
2480;SDS011;57396;48.742;9.128;2022-12-18T01:18:41;61.77;;;28.93;;
2480;SDS011;57396;48.742;9.128;2022-12-18T01:21:07;65.57;;;28.83;;
2480;SDS011;57396;48.742;9.128;2022-12-18T01:23:34;61.23;;;29.90;;
2480;SDS011;57396;48.742;9.128;2022-12-18T01:26:09;59.67;;;28.10;;
2480;SDS011;57396;48.742;9.128;2022-12-18T01:28:36;65.63;;;28.97;;
2480;SDS011;57396;48.742;9.128;2022-12-18T01:31:12;62.50;;;28.70;;
2480;SDS011;57396;48.742;9.128;2022-12-18T01:33:42;63.00;;;28.27;;
2480;SDS011;57396;48.742;9.128;2022-12-18T01:36:08;55.67;;;28.43;;
2480;SDS011;57396;48.742;9.128;2022-12-18T01:38:37;60.40;;;29.60;;
2480;SDS011;57396;48.742;9.128;2022-12-18T01:41:02;65.23;;;30.00;;
2480;SDS011;57396;48.742;9.128;2022-12-18T01:46:09;55.90;;;28.20;;
2480;SDS011;57396;48.742;9.128;2022-12-18T01:48:35;67.10;;;28.47;;
2480;SDS011;57396;48.742;9.128;2022-12-18T01:51:00;60.87;;;28.97;;
2480;SDS011;57396;48.742;9.128;2022-12-18T01:53:26;64.13;;;27.70;;
2480;SDS011;57396;48.742;9.128;2022-12-18T01:55:53;57.70;;;27.70;;
2480;SDS011;57396;48.742;9.128;2022-12-18T01:59:07;57.60;;;26.13;;
2480;SDS011;57396;48.742;9.128;2022-12-18T02:01:17;52.10;;;24.40;;
2480;SDS011;57396;48.742;9.128;2022-12-18T02:03:43;61.17;;;25.30;;
2480;SDS011;57396;48.742;9.128;2022-12-18T02:06:12;55.70;;;25.57;;
2480;SDS011;57396;48.742;9.128;2022-12-18T02:14:23;60.63;;;25.33;;
2480;SDS011;57396;48.742;9.128;2022-12-18T02:25:39;47.27;;;23.13;;
2480;SDS011;57396;48.742;9.128;2022-12-18T02:28:16;50.53;;;22.63;;
2480;SDS011;57396;48.742;9.128;2022-12-18T02:30:46;51.70;;;24.70;;
2480;SDS011;57396;48.742;9.128;2022-12-18T02:33:13;58.50;;;25.37;;
2480;SDS011;57396;48.742;9.128;2022-12-18T02:35:39;55.13;;;25.00;;
2480;SDS011;57396;48.742;9.128;2022-12-18T02:38:06;50.47;;;23.23;;
2480;SDS011;57396;48.742;9.128;2022-12-18T02:40:31;46.87;;;24.70;;
2480;SDS011;57396;48.742;9.128;2022-12-18T02:43:10;53.33;;;24.60;;
2480;SDS011;57396;48.742;9.128;2022-12-18T02:45:47;45.30;;;24.17;;
2480;SDS011;57396;48.742;9.128;2022-12-18T02:48:17;48.20;;;23.73;;
2480;SDS011;57396;48.742;9.128;2022-12-18T02:50:48;50.80;;;23.53;;
2480;SDS011;57396;48.742;9.128;2022-12-18T02:53:24;47.23;;;24.03;;
2480;SDS011;57396;48.742;9.128;2022-12-18T03:01:25;46.10;;;22.70;;
2480;SDS011;57396;48.742;9.128;2022-12-18T03:04:02;47.90;;;23.47;;
2480;SDS011;57396;48.742;9.128;2022-12-18T03:06:34;45.87;;;22.93;;
2480;SDS011;57396;48.742;9.128;2022-12-18T03:09:06;50.53;;;24.43;;
2480;SDS011;57396;48.742;9.128;2022-12-18T03:11:34;49.07;;;22.77;;
2480;SDS011;57396;48.742;9.128;2022-12-18T03:14:22;46.17;;;22.20;;
2480;SDS011;57396;48.742;9.128;2022-12-18T03:16:49;46.60;;;22.27;;
2480;SDS011;57396;48.742;9.128;2022-12-18T03:19:18;52.77;;;24.73;;
2480;SDS011;57396;48.742;9.128;2022-12-18T03:21:47;47.03;;;22.27;;
2480;SDS011;57396;48.742;9.128;2022-12-18T03:24:15;47.10;;;22.73;;
2480;SDS011;57396;48.742;9.128;2022-12-18T03:26:43;45.43;;;22.10;;
2480;SDS011;57396;48.742;9.128;2022-12-18T03:29:21;46.03;;;20.70;;
2480;SDS011;57396;48.742;9.128;2022-12-18T03:31:51;47.73;;;22.67;;
2480;SDS011;57396;48.742;9.128;2022-12-18T03:34:21;48.47;;;22.10;;
2480;SDS011;57396;48.742;9.128;2022-12-18T03:36:48;43.70;;;21.93;;
2480;SDS011;57396;48.742;9.128;2022-12-18T03:39:14;45.53;;;22.03;;
2480;SDS011;57396;48.742;9.128;2022-12-18T03:46:48;47.80;;;21.97;;
2480;SDS011;57396;48.742;9.128;2022-12-18T03:52:50;43.60;;;21.50;;
2480;SDS011;57396;48.742;9.128;2022-12-18T03:55:24;48.97;;;21.57;;
2480;SDS011;57396;48.742;9.128;2022-12-18T03:57:50;41.43;;;20.07;;
2480;SDS011;57396;48.742;9.128;2022-12-18T04:00:17;46.83;;;20.43;;
2480;SDS011;57396;48.742;9.128;2022-12-18T04:02:53;43.67;;;20.97;;
2480;SDS011;57396;48.742;9.128;2022-12-18T04:05:20;51.23;;;23.17;;
2480;SDS011;57396;48.742;9.128;2022-12-18T04:07:46;39.70;;;20.70;;
2480;SDS011;57396;48.742;9.128;2022-12-18T04:10:13;45.40;;;21.50;;
2480;SDS011;57396;48.742;9.128;2022-12-18T04:12:39;46.27;;;22.03;;
2480;SDS011;57396;48.742;9.128;2022-12-18T04:15:05;44.67;;;21.97;;
2480;SDS011;57396;48.742;9.128;2022-12-18T04:17:31;43.10;;;20.70;;
2480;SDS011;57396;48.742;9.128;2022-12-18T04:19:56;44.97;;;21.80;;
2480;SDS011;57396;48.742;9.128;2022-12-18T04:22:22;43.97;;;21.20;;
2480;SDS011;57396;48.742;9.128;2022-12-18T04:24:47;44.10;;;20.80;;
2480;SDS011;57396;48.742;9.128;2022-12-18T04:27:13;39.00;;;20.17;;
2480;SDS011;57396;48.742;9.128;2022-12-18T04:29:38;46.40;;;20.93;;
2480;SDS011;57396;48.742;9.128;2022-12-18T04:32:04;43.50;;;20.93;;
2480;SDS011;57396;48.742;9.128;2022-12-18T04:34:29;42.87;;;20.03;;
2480;SDS011;57396;48.742;9.128;2022-12-18T04:36:55;39.93;;;21.40;;
2480;SDS011;57396;48.742;9.128;2022-12-18T04:39:21;49.93;;;22.27;;
2480;SDS011;57396;48.742;9.128;2022-12-18T04:41:46;44.00;;;21.70;;
2480;SDS011;57396;48.742;9.128;2022-12-18T04:44:12;43.57;;;21.17;;
2480;SDS011;57396;48.742;9.128;2022-12-18T04:46:37;50.63;;;22.10;;
2480;SDS011;57396;48.742;9.128;2022-12-18T04:49:03;40.70;;;20.97;;
2480;SDS011;57396;48.742;9.128;2022-12-18T04:51:28;47.90;;;20.30;;
2480;SDS011;57396;48.742;9.128;2022-12-18T04:53:54;46.27;;;22.77;;
2480;SDS011;57396;48.742;9.128;2022-12-18T04:56:19;49.50;;;22.73;;
2480;SDS011;57396;48.742;9.128;2022-12-18T04:58:45;47.33;;;23.43;;
2480;SDS011;57396;48.742;9.128;2022-12-18T05:01:11;45.27;;;22.37;;
2480;SDS011;57396;48.742;9.128;2022-12-18T05:03:37;52.60;;;23.67;;
2480;SDS011;57396;48.742;9.128;2022-12-18T05:06:03;46.63;;;23.37;;
2480;SDS011;57396;48.742;9.128;2022-12-18T05:08:29;51.90;;;23.70;;
2480;SDS011;57396;48.742;9.128;2022-12-18T05:10:58;50.83;;;23.00;;
2480;SDS011;57396;48.742;9.128;2022-12-18T05:13:25;51.40;;;23.80;;
2480;SDS011;57396;48.742;9.128;2022-12-18T05:15:51;42.93;;;21.67;;
2480;SDS011;57396;48.742;9.128;2022-12-18T05:18:17;50.73;;;21.93;;
2480;SDS011;57396;48.742;9.128;2022-12-18T05:20:42;45.53;;;22.33;;
2480;SDS011;57396;48.742;9.128;2022-12-18T05:23:08;48.80;;;24.10;;
2480;SDS011;57396;48.742;9.128;2022-12-18T05:25:33;43.77;;;22.20;;
2480;SDS011;57396;48.742;9.128;2022-12-18T05:27:59;51.90;;;23.67;;
2480;SDS011;57396;48.742;9.128;2022-12-18T05:30:24;51.87;;;23.70;;
2480;SDS011;57396;48.742;9.128;2022-12-18T05:32:50;51.33;;;23.40;;
2480;SDS011;57396;48.742;9.128;2022-12-18T05:35:15;57.83;;;23.10;;
2480;SDS011;57396;48.742;9.128;2022-12-18T05:37:40;46.73;;;22.60;;
2480;SDS011;57396;48.742;9.128;2022-12-18T05:40:06;47.53;;;22.60;;
2480;SDS011;57396;48.742;9.128;2022-12-18T05:42:32;49.50;;;21.30;;
2480;SDS011;57396;48.742;9.128;2022-12-18T05:44:57;50.20;;;22.13;;
2480;SDS011;57396;48.742;9.128;2022-12-18T05:47:23;45.27;;;21.93;;
2480;SDS011;57396;48.742;9.128;2022-12-18T05:49:48;47.20;;;22.70;;
2480;SDS011;57396;48.742;9.128;2022-12-18T05:52:14;45.10;;;22.00;;
2480;SDS011;57396;48.742;9.128;2022-12-18T05:54:39;55.43;;;24.77;;
2480;SDS011;57396;48.742;9.128;2022-12-18T05:57:05;62.47;;;26.80;;
2480;SDS011;57396;48.742;9.128;2022-12-18T05:59:30;54.13;;;27.10;;
2480;SDS011;57396;48.742;9.128;2022-12-18T06:01:56;47.30;;;25.47;;
2480;SDS011;57396;48.742;9.128;2022-12-18T06:04:22;49.70;;;23.30;;
2480;SDS011;57396;48.742;9.128;2022-12-18T06:06:48;45.90;;;21.60;;
2480;SDS011;57396;48.742;9.128;2022-12-18T06:09:13;51.33;;;23.37;;
2480;SDS011;57396;48.742;9.128;2022-12-18T06:11:39;43.63;;;21.97;;
2480;SDS011;57396;48.742;9.128;2022-12-18T06:14:04;51.37;;;23.43;;
2480;SDS011;57396;48.742;9.128;2022-12-18T06:16:31;53.10;;;23.60;;
2480;SDS011;57396;48.742;9.128;2022-12-18T06:19:00;44.47;;;22.47;;
2480;SDS011;57396;48.742;9.128;2022-12-18T06:21:27;42.03;;;19.93;;
2480;SDS011;57396;48.742;9.128;2022-12-18T06:23:53;52.73;;;22.40;;
2480;SDS011;57396;48.742;9.128;2022-12-18T06:26:18;46.60;;;22.30;;
2480;SDS011;57396;48.742;9.128;2022-12-18T06:28:44;41.33;;;20.47;;
2480;SDS011;57396;48.742;9.128;2022-12-18T06:31:10;47.43;;;22.40;;
2480;SDS011;57396;48.742;9.128;2022-12-18T06:33:35;49.93;;;22.40;;
2480;SDS011;57396;48.742;9.128;2022-12-18T06:36:11;43.73;;;21.13;;
2480;SDS011;57396;48.742;9.128;2022-12-18T06:38:38;53.30;;;21.80;;
2480;SDS011;57396;48.742;9.128;2022-12-18T06:41:06;51.30;;;23.53;;
2480;SDS011;57396;48.742;9.128;2022-12-18T06:43:32;44.00;;;21.43;;
2480;SDS011;57396;48.742;9.128;2022-12-18T06:46:01;45.30;;;20.80;;
2480;SDS011;57396;48.742;9.128;2022-12-18T06:48:28;45.63;;;20.90;;
2480;SDS011;57396;48.742;9.128;2022-12-18T06:50:54;51.37;;;23.40;;
2480;SDS011;57396;48.742;9.128;2022-12-18T06:53:19;47.83;;;24.03;;
2480;SDS011;57396;48.742;9.128;2022-12-18T06:55:45;50.13;;;21.37;;
2480;SDS011;57396;48.742;9.128;2022-12-18T06:58:10;49.10;;;21.80;;
2480;SDS011;57396;48.742;9.128;2022-12-18T07:00:36;47.73;;;21.83;;
2480;SDS011;57396;48.742;9.128;2022-12-18T07:03:01;42.47;;;20.37;;
2480;SDS011;57396;48.742;9.128;2022-12-18T07:05:26;49.77;;;21.77;;
2480;SDS011;57396;48.742;9.128;2022-12-18T07:07:52;45.33;;;19.90;;
2480;SDS011;57396;48.742;9.128;2022-12-18T07:10:18;41.67;;;21.87;;
2480;SDS011;57396;48.742;9.128;2022-12-18T07:12:43;51.57;;;21.80;;
2480;SDS011;57396;48.742;9.128;2022-12-18T07:15:09;42.87;;;20.90;;
2480;SDS011;57396;48.742;9.128;2022-12-18T07:17:34;46.50;;;20.93;;
2480;SDS011;57396;48.742;9.128;2022-12-18T07:20:00;50.87;;;23.67;;
2480;SDS011;57396;48.742;9.128;2022-12-18T07:22:26;45.60;;;21.40;;
2480;SDS011;57396;48.742;9.128;2022-12-18T07:24:51;48.47;;;20.97;;
2480;SDS011;57396;48.742;9.128;2022-12-18T07:27:17;48.77;;;22.77;;
2480;SDS011;57396;48.742;9.128;2022-12-18T07:29:42;43.17;;;20.10;;
2480;SDS011;57396;48.742;9.128;2022-12-18T07:32:08;43.33;;;21.40;;
2480;SDS011;57396;48.742;9.128;2022-12-18T07:34:33;50.73;;;21.70;;
2480;SDS011;57396;48.742;9.128;2022-12-18T07:36:59;51.07;;;22.47;;
2480;SDS011;57396;48.742;9.128;2022-12-18T07:39:24;49.77;;;21.40;;
2480;SDS011;57396;48.742;9.128;2022-12-18T07:41:50;54.53;;;23.47;;
2480;SDS011;57396;48.742;9.128;2022-12-18T07:44:44;56.50;;;24.87;;
2480;SDS011;57396;48.742;9.128;2022-12-18T07:47:10;54.97;;;24.67;;
2480;SDS011;57396;48.742;9.128;2022-12-18T07:49:35;253.00;;;83.90;;
2480;SDS011;57396;48.742;9.128;2022-12-18T07:52:01;220.93;;;80.10;;
2480;SDS011;57396;48.742;9.128;2022-12-18T07:54:27;115.40;;;46.47;;
2480;SDS011;57396;48.742;9.128;2022-12-18T07:56:52;259.37;;;86.80;;
2480;SDS011;57396;48.742;9.128;2022-12-18T07:59:18;265.03;;;82.23;;
2480;SDS011;57396;48.742;9.128;2022-12-18T08:01:43;122.30;;;46.53;;
2480;SDS011;57396;48.742;9.128;2022-12-18T08:04:09;75.10;;;32.87;;
2480;SDS011;57396;48.742;9.128;2022-12-18T08:06:34;57.40;;;24.93;;
2480;SDS011;57396;48.742;9.128;2022-12-18T08:09:00;97.40;;;37.90;;
2480;SDS011;57396;48.742;9.128;2022-12-18T08:11:26;101.80;;;40.43;;
2480;SDS011;57396;48.742;9.128;2022-12-18T08:13:52;67.03;;;31.10;;
2480;SDS011;57396;48.742;9.128;2022-12-18T08:16:18;58.57;;;27.43;;
2480;SDS011;57396;48.742;9.128;2022-12-18T08:18:44;60.40;;;28.47;;
2480;SDS011;57396;48.742;9.128;2022-12-18T08:23:47;46.57;;;23.53;;
2480;SDS011;57396;48.742;9.128;2022-12-18T08:26:13;59.97;;;24.70;;
2480;SDS011;57396;48.742;9.128;2022-12-18T08:28:39;55.00;;;28.20;;
2480;SDS011;57396;48.742;9.128;2022-12-18T08:31:05;56.80;;;25.90;;
2480;SDS011;57396;48.742;9.128;2022-12-18T08:33:31;61.30;;;27.50;;
2480;SDS011;57396;48.742;9.128;2022-12-18T08:36:00;56.43;;;26.83;;
2480;SDS011;57396;48.742;9.128;2022-12-18T08:38:26;45.53;;;22.47;;
2480;SDS011;57396;48.742;9.128;2022-12-18T08:40:58;47.90;;;23.70;;
2480;SDS011;57396;48.742;9.128;2022-12-18T08:43:25;46.70;;;22.47;;
2480;SDS011;57396;48.742;9.128;2022-12-18T08:46:09;47.00;;;22.90;;
2480;SDS011;57396;48.742;9.128;2022-12-18T08:48:34;41.53;;;22.10;;
2480;SDS011;57396;48.742;9.128;2022-12-18T08:51:00;44.97;;;22.30;;
2480;SDS011;57396;48.742;9.128;2022-12-18T08:53:26;45.07;;;21.73;;
2480;SDS011;57396;48.742;9.128;2022-12-18T08:55:52;46.63;;;22.67;;
2480;SDS011;57396;48.742;9.128;2022-12-18T08:58:18;47.57;;;25.03;;
2480;SDS011;57396;48.742;9.128;2022-12-18T09:00:44;42.33;;;22.50;;
2480;SDS011;57396;48.742;9.128;2022-12-18T09:03:13;49.63;;;27.83;;
2480;SDS011;57396;48.742;9.128;2022-12-18T09:05:39;49.27;;;26.60;;
2480;SDS011;57396;48.742;9.128;2022-12-18T09:08:04;42.40;;;21.30;;
2480;SDS011;57396;48.742;9.128;2022-12-18T09:10:30;47.87;;;23.50;;
2480;SDS011;57396;48.742;9.128;2022-12-18T09:12:57;43.40;;;22.10;;
2480;SDS011;57396;48.742;9.128;2022-12-18T09:15:22;44.80;;;23.10;;
2480;SDS011;57396;48.742;9.128;2022-12-18T09:17:47;43.93;;;21.93;;
2480;SDS011;57396;48.742;9.128;2022-12-18T09:20:15;42.27;;;21.53;;
2480;SDS011;57396;48.742;9.128;2022-12-18T09:22:41;44.20;;;23.03;;
2480;SDS011;57396;48.742;9.128;2022-12-18T09:25:06;44.83;;;23.17;;
2480;SDS011;57396;48.742;9.128;2022-12-18T09:27:35;43.97;;;22.37;;
2480;SDS011;57396;48.742;9.128;2022-12-18T09:30:00;46.13;;;23.63;;
2480;SDS011;57396;48.742;9.128;2022-12-18T09:32:26;43.10;;;22.27;;
2480;SDS011;57396;48.742;9.128;2022-12-18T09:34:51;44.97;;;23.77;;
2480;SDS011;57396;48.742;9.128;2022-12-18T09:37:17;41.50;;;23.00;;
2480;SDS011;57396;48.742;9.128;2022-12-18T09:39:42;42.67;;;23.50;;
2480;SDS011;57396;48.742;9.128;2022-12-18T09:42:21;41.23;;;23.03;;
2480;SDS011;57396;48.742;9.128;2022-12-18T09:44:53;45.50;;;24.30;;
2480;SDS011;57396;48.742;9.128;2022-12-18T09:49:54;38.30;;;21.30;;
2480;SDS011;57396;48.742;9.128;2022-12-18T09:52:27;43.37;;;21.77;;
2480;SDS011;57396;48.742;9.128;2022-12-18T09:55:05;38.27;;;20.87;;
2480;SDS011;57396;48.742;9.128;2022-12-18T09:57:36;37.93;;;21.33;;
2480;SDS011;57396;48.742;9.128;2022-12-18T10:00:19;42.03;;;22.70;;
2480;SDS011;57396;48.742;9.128;2022-12-18T10:02:46;47.90;;;23.60;;
2480;SDS011;57396;48.742;9.128;2022-12-18T10:15:51;50.07;;;24.70;;
2480;SDS011;57396;48.742;9.128;2022-12-18T10:18:37;47.93;;;24.77;;
2480;SDS011;57396;48.742;9.128;2022-12-18T10:21:38;44.47;;;23.30;;
2480;SDS011;57396;48.742;9.128;2022-12-18T10:26:41;47.37;;;25.43;;
2480;SDS011;57396;48.742;9.128;2022-12-18T10:29:14;50.57;;;25.73;;
2480;SDS011;57396;48.742;9.128;2022-12-18T10:31:40;56.40;;;24.97;;
2480;SDS011;57396;48.742;9.128;2022-12-18T10:34:09;53.33;;;25.33;;
2480;SDS011;57396;48.742;9.128;2022-12-18T10:36:36;49.63;;;22.73;;
2480;SDS011;57396;48.742;9.128;2022-12-18T10:39:13;39.67;;;21.73;;
2480;SDS011;57396;48.742;9.128;2022-12-18T10:41:44;36.57;;;21.33;;
2480;SDS011;57396;48.742;9.128;2022-12-18T10:44:11;39.47;;;21.33;;
2480;SDS011;57396;48.742;9.128;2022-12-18T10:46:40;39.10;;;21.33;;
2480;SDS011;57396;48.742;9.128;2022-12-18T10:49:17;39.60;;;21.33;;
2480;SDS011;57396;48.742;9.128;2022-12-18T10:51:44;41.33;;;20.73;;
2480;SDS011;57396;48.742;9.128;2022-12-18T10:54:14;41.90;;;21.43;;
2480;SDS011;57396;48.742;9.128;2022-12-18T10:56:41;40.27;;;20.73;;
2480;SDS011;57396;48.742;9.128;2022-12-18T10:59:08;39.17;;;20.47;;
2480;SDS011;57396;48.742;9.128;2022-12-18T11:04:21;38.50;;;20.70;;
2480;SDS011;57396;48.742;9.128;2022-12-18T11:09:24;40.20;;;20.40;;
2480;SDS011;57396;48.742;9.128;2022-12-18T11:11:52;38.80;;;20.77;;
2480;SDS011;57396;48.742;9.128;2022-12-18T11:14:22;40.03;;;21.07;;
2480;SDS011;57396;48.742;9.128;2022-12-18T11:16:50;44.20;;;21.37;;
2480;SDS011;57396;48.742;9.128;2022-12-18T11:21:53;38.30;;;20.33;;
2480;SDS011;57396;48.742;9.128;2022-12-18T11:26:59;41.20;;;21.40;;
2480;SDS011;57396;48.742;9.128;2022-12-18T11:29:29;43.50;;;21.30;;
2480;SDS011;57396;48.742;9.128;2022-12-18T11:34:51;39.80;;;20.80;;
2480;SDS011;57396;48.742;9.128;2022-12-18T11:37:20;42.00;;;20.27;;
2480;SDS011;57396;48.742;9.128;2022-12-18T11:39:50;41.73;;;20.47;;
2480;SDS011;57396;48.742;9.128;2022-12-18T11:42:27;40.03;;;20.93;;
2480;SDS011;57396;48.742;9.128;2022-12-18T11:44:58;38.87;;;21.03;;
2480;SDS011;57396;48.742;9.128;2022-12-18T11:47:29;42.50;;;22.27;;
2480;SDS011;57396;48.742;9.128;2022-12-18T11:50:03;44.93;;;23.27;;
2480;SDS011;57396;48.742;9.128;2022-12-18T11:52:32;43.43;;;22.47;;
2480;SDS011;57396;48.742;9.128;2022-12-18T11:55:04;44.90;;;23.10;;
2480;SDS011;57396;48.742;9.128;2022-12-18T12:00:32;39.50;;;21.10;;
2480;SDS011;57396;48.742;9.128;2022-12-18T12:03:17;41.97;;;21.53;;
2480;SDS011;57396;48.742;9.128;2022-12-18T12:06:11;46.30;;;23.50;;
2480;SDS011;57396;48.742;9.128;2022-12-18T12:16:24;60.20;;;29.93;;
2480;SDS011;57396;48.742;9.128;2022-12-18T12:19:07;55.00;;;29.40;;
2480;SDS011;57396;48.742;9.128;2022-12-18T12:27:57;61.13;;;29.00;;
2480;SDS011;57396;48.742;9.128;2022-12-18T12:30:33;55.90;;;29.00;;
2480;SDS011;57396;48.742;9.128;2022-12-18T12:34:08;56.33;;;31.25;;
2480;SDS011;57396;48.742;9.128;2022-12-18T12:36:32;52.30;;;30.00;;
2480;SDS011;57396;48.742;9.128;2022-12-18T12:39:05;54.73;;;28.50;;
2480;SDS011;57396;48.742;9.128;2022-12-18T12:41:33;53.67;;;27.90;;
2480;SDS011;57396;48.742;9.128;2022-12-18T12:44:19;49.93;;;28.20;;
2480;SDS011;57396;48.742;9.128;2022-12-18T12:46:47;54.33;;;28.47;;
2480;SDS011;57396;48.742;9.128;2022-12-18T12:49:23;52.20;;;27.50;;
2480;SDS011;57396;48.742;9.128;2022-12-18T12:52:03;55.93;;;27.17;;
2480;SDS011;57396;48.742;9.128;2022-12-18T12:54:31;55.17;;;29.07;;
2480;SDS011;57396;48.742;9.128;2022-12-18T12:57:02;50.50;;;28.60;;
2480;SDS011;57396;48.742;9.128;2022-12-18T12:59:37;56.37;;;28.63;;
2480;SDS011;57396;48.742;9.128;2022-12-18T13:02:22;57.87;;;29.20;;
2480;SDS011;57396;48.742;9.128;2022-12-18T13:04:56;54.63;;;30.27;;
2480;SDS011;57396;48.742;9.128;2022-12-18T13:12:57;43.67;;;22.10;;
2480;SDS011;57396;48.742;9.128;2022-12-18T13:15:25;45.03;;;24.17;;
2480;SDS011;57396;48.742;9.128;2022-12-18T13:18:11;51.30;;;23.90;;
2480;SDS011;57396;48.742;9.128;2022-12-18T13:20:40;54.70;;;28.87;;
2480;SDS011;57396;48.742;9.128;2022-12-18T13:25:47;52.30;;;27.23;;
2480;SDS011;57396;48.742;9.128;2022-12-18T13:28:20;57.73;;;24.77;;
2480;SDS011;57396;48.742;9.128;2022-12-18T13:35:51;50.87;;;25.40;;
2480;SDS011;57396;48.742;9.128;2022-12-18T13:38:23;53.33;;;25.20;;
2480;SDS011;57396;48.742;9.128;2022-12-18T13:43:45;48.80;;;24.90;;
2480;SDS011;57396;48.742;9.128;2022-12-18T13:49:03;45.27;;;23.90;;
2480;SDS011;57396;48.742;9.128;2022-12-18T13:51:50;44.10;;;23.10;;
2480;SDS011;57396;48.742;9.128;2022-12-18T13:54:19;42.33;;;22.47;;
2480;SDS011;57396;48.742;9.128;2022-12-18T13:56:46;48.80;;;25.43;;
2480;SDS011;57396;48.742;9.128;2022-12-18T13:59:20;53.17;;;25.67;;
2480;SDS011;57396;48.742;9.128;2022-12-18T14:01:58;44.53;;;24.20;;
2480;SDS011;57396;48.742;9.128;2022-12-18T14:04:29;40.90;;;21.40;;
2480;SDS011;57396;48.742;9.128;2022-12-18T14:06:57;42.30;;;22.27;;
2480;SDS011;57396;48.742;9.128;2022-12-18T14:09:28;51.10;;;24.07;;
2480;SDS011;57396;48.742;9.128;2022-12-18T14:11:55;46.30;;;24.10;;
2480;SDS011;57396;48.742;9.128;2022-12-18T14:14:42;46.33;;;23.73;;
2480;SDS011;57396;48.742;9.128;2022-12-18T14:17:10;53.03;;;27.73;;
2480;SDS011;57396;48.742;9.128;2022-12-18T14:19:43;57.73;;;29.17;;
2480;SDS011;57396;48.742;9.128;2022-12-18T14:22:23;47.00;;;24.33;;
2480;SDS011;57396;48.742;9.128;2022-12-18T14:27:38;46.27;;;25.63;;
2480;SDS011;57396;48.742;9.128;2022-12-18T14:33:05;51.13;;;23.40;;
2480;SDS011;57396;48.742;9.128;2022-12-18T14:35:40;54.20;;;24.10;;
2480;SDS011;57396;48.742;9.128;2022-12-18T14:41:05;53.03;;;24.80;;
2480;SDS011;57396;48.742;9.128;2022-12-18T14:43:32;52.40;;;24.57;;
2480;SDS011;57396;48.742;9.128;2022-12-18T14:45:59;49.20;;;23.17;;
2480;SDS011;57396;48.742;9.128;2022-12-18T14:48:33;50.40;;;24.97;;
2480;SDS011;57396;48.742;9.128;2022-12-18T14:51:00;51.13;;;25.70;;
2480;SDS011;57396;48.742;9.128;2022-12-18T14:53:56;58.60;;;26.47;;
2480;SDS011;57396;48.742;9.128;2022-12-18T14:56:32;55.60;;;27.50;;
2480;SDS011;57396;48.742;9.128;2022-12-18T14:59:00;54.47;;;24.93;;
2480;SDS011;57396;48.742;9.128;2022-12-18T15:01:35;62.70;;;27.63;;
2480;SDS011;57396;48.742;9.128;2022-12-18T15:04:02;57.70;;;27.53;;
2480;SDS011;57396;48.742;9.128;2022-12-18T15:06:30;50.73;;;26.03;;
2480;SDS011;57396;48.742;9.128;2022-12-18T15:08:58;55.03;;;26.63;;
2480;SDS011;57396;48.742;9.128;2022-12-18T15:14:21;58.57;;;28.10;;
2480;SDS011;57396;48.742;9.128;2022-12-18T15:16:58;53.87;;;26.73;;
2480;SDS011;57396;48.742;9.128;2022-12-18T15:19:58;60.40;;;27.47;;
2480;SDS011;57396;48.742;9.128;2022-12-18T15:22:18;61.27;;;26.27;;
2480;SDS011;57396;48.742;9.128;2022-12-18T15:24:50;49.03;;;24.70;;
2480;SDS011;57396;48.742;9.128;2022-12-18T15:27:49;52.10;;;26.73;;
2480;SDS011;57396;48.742;9.128;2022-12-18T15:32:35;62.90;;;30.97;;
2480;SDS011;57396;48.742;9.128;2022-12-18T15:35:23;56.20;;;27.10;;
2480;SDS011;57396;48.742;9.128;2022-12-18T15:37:49;64.33;;;29.07;;
2480;SDS011;57396;48.742;9.128;2022-12-18T15:40:18;74.80;;;30.13;;
2480;SDS011;57396;48.742;9.128;2022-12-18T15:42:45;63.93;;;27.93;;
2480;SDS011;57396;48.742;9.128;2022-12-18T15:45:30;68.10;;;29.47;;
2480;SDS011;57396;48.742;9.128;2022-12-18T15:47:55;50.57;;;27.10;;
2480;SDS011;57396;48.742;9.128;2022-12-18T15:50:21;53.50;;;27.83;;
2480;SDS011;57396;48.742;9.128;2022-12-18T15:52:47;54.73;;;27.17;;
2480;SDS011;57396;48.742;9.128;2022-12-18T15:55:15;46.10;;;24.60;;
2480;SDS011;57396;48.742;9.128;2022-12-18T15:58:05;58.97;;;26.97;;
2480;SDS011;57396;48.742;9.128;2022-12-18T16:00:31;52.83;;;26.73;;
2480;SDS011;57396;48.742;9.128;2022-12-18T16:02:57;60.40;;;26.83;;
2480;SDS011;57396;48.742;9.128;2022-12-18T16:05:23;54.10;;;26.73;;
2480;SDS011;57396;48.742;9.128;2022-12-18T16:07:49;52.17;;;27.87;;
2480;SDS011;57396;48.742;9.128;2022-12-18T16:10:14;56.43;;;27.67;;
2480;SDS011;57396;48.742;9.128;2022-12-18T16:12:40;53.80;;;26.73;;
2480;SDS011;57396;48.742;9.128;2022-12-18T16:15:06;54.83;;;28.67;;
2480;SDS011;57396;48.742;9.128;2022-12-18T16:17:32;61.93;;;28.97;;
2480;SDS011;57396;48.742;9.128;2022-12-18T16:19:58;62.13;;;29.17;;
2480;SDS011;57396;48.742;9.128;2022-12-18T16:22:24;59.07;;;30.00;;
2480;SDS011;57396;48.742;9.128;2022-12-18T16:24:52;61.40;;;31.50;;
2480;SDS011;57396;48.742;9.128;2022-12-18T16:27:18;56.20;;;28.67;;
2480;SDS011;57396;48.742;9.128;2022-12-18T16:29:44;58.20;;;27.20;;
2480;SDS011;57396;48.742;9.128;2022-12-18T16:32:17;65.33;;;28.10;;
2480;SDS011;57396;48.742;9.128;2022-12-18T16:34:44;56.17;;;29.83;;
2480;SDS011;57396;48.742;9.128;2022-12-18T16:37:11;61.83;;;31.50;;